Scovel, Illinois
Current Conditions -  °F | °C
As of 5:15 PM on Tuesday 27 Jan 2015 (Local Time) from KPNT Reporting Station
Haze Haze  
Wind Chill: 31°   Ceiling: 2100
Heat Index: 31°   Visibility: 5mi
Dew Point: 29°   Wind: 0mph
Humidity: 91%   Direction: NA
Pressure: 30.24"   Gusts: NA
Location:  40.8821°N, 88.4137°W
Report Text: KPNT 272315Z AUTO 00000KT 5SM BR SCT011 OVC021 00/M02 A3024 RMK AO2 T10031016
Loading
Personal Weather Stations






























Interactive Weather Map New forecast layout! Learn more

10-Day Weather Forecast

Advertisements
Track Severe Weather on mobile